sensor_id;sensor_type;location;lat;lon;timestamp;pressure;altitude;pressure_sealevel;temperature;humidity
76598;BME280;65486;53.144;18.134;2023-05-07T00:01:32;101833.77;;;4.46;85.80
76598;BME280;65486;53.144;18.134;2023-05-07T00:04:01;101830.83;;;4.40;85.91
76598;BME280;65486;53.144;18.134;2023-05-07T00:06:27;101829.33;;;4.36;85.97
76598;BME280;65486;53.144;18.134;2023-05-07T00:09:02;101832.19;;;4.31;85.97
76598;BME280;65486;53.144;18.134;2023-05-07T00:11:31;101831.11;;;4.27;86.16
76598;BME280;65486;53.144;18.134;2023-05-07T00:13:59;101830.70;;;4.22;86.10
76598;BME280;65486;53.144;18.134;2023-05-07T00:16:26;101815.88;;;4.11;86.15
76598;BME280;65486;53.144;18.134;2023-05-07T00:18:55;101834.67;;;4.14;86.16
76598;BME280;65486;53.144;18.134;2023-05-07T00:21:22;101835.55;;;4.09;86.07
76598;BME280;65486;53.144;18.134;2023-05-07T00:23:49;101837.16;;;4.03;86.21
76598;BME280;65486;53.144;18.134;2023-05-07T00:26:16;101837.77;;;3.99;86.12
76598;BME280;65486;53.144;18.134;2023-05-07T00:28:44;101836.28;;;3.94;86.32
76598;BME280;65486;53.144;18.134;2023-05-07T00:31:11;101836.77;;;3.90;86.26
76598;BME280;65486;53.144;18.134;2023-05-07T00:33:39;101842.83;;;3.85;86.27
76598;BME280;65486;53.144;18.134;2023-05-07T00:36:06;101846.50;;;3.81;86.18
76598;BME280;65486;53.144;18.134;2023-05-07T00:38:33;101849.28;;;3.77;86.44
76598;BME280;65486;53.144;18.134;2023-05-07T00:41:01;101852.17;;;3.74;86.43
76598;BME280;65486;53.144;18.134;2023-05-07T00:43:29;101851.27;;;3.70;86.34
76598;BME280;65486;53.144;18.134;2023-05-07T00:45:56;101855.02;;;3.65;86.22
76598;BME280;65486;53.144;18.134;2023-05-07T00:48:23;101856.81;;;3.60;86.07
76598;BME280;65486;53.144;18.134;2023-05-07T00:50:52;101856.20;;;3.55;86.24
76598;BME280;65486;53.144;18.134;2023-05-07T00:53:19;101859.80;;;3.48;85.94
76598;BME280;65486;53.144;18.134;2023-05-07T00:55:47;101864.10;;;3.43;86.11
76598;BME280;65486;53.144;18.134;2023-05-07T00:58:16;101868.45;;;3.40;86.28
76598;BME280;65486;53.144;18.134;2023-05-07T01:00:46;101866.27;;;3.36;86.10
76598;BME280;65486;53.144;18.134;2023-05-07T01:03:13;101864.35;;;3.31;86.35
76598;BME280;65486;53.144;18.134;2023-05-07T01:05:40;101863.67;;;3.27;86.21
76598;BME280;65486;53.144;18.134;2023-05-07T01:08:08;101861.59;;;3.25;86.37
76598;BME280;65486;53.144;18.134;2023-05-07T01:10:35;101865.23;;;3.23;86.55
76598;BME280;65486;53.144;18.134;2023-05-07T01:13:03;101868.11;;;3.19;86.25
76598;BME280;65486;53.144;18.134;2023-05-07T01:15:30;101866.58;;;3.15;86.34
76598;BME280;65486;53.144;18.134;2023-05-07T01:17:57;101864.08;;;3.11;86.16
76598;BME280;65486;53.144;18.134;2023-05-07T01:20:34;101862.68;;;3.06;86.05
76598;BME280;65486;53.144;18.134;2023-05-07T01:23:03;101861.79;;;3.04;86.35
76598;BME280;65486;53.144;18.134;2023-05-07T01:25:31;101860.52;;;3.02;86.41
76598;BME280;65486;53.144;18.134;2023-05-07T01:28:00;101863.70;;;2.99;86.47
76598;BME280;65486;53.144;18.134;2023-05-07T01:30:30;101869.08;;;2.96;86.22
76598;BME280;65486;53.144;18.134;2023-05-07T01:32:59;101872.86;;;2.91;86.14
76598;BME280;65486;53.144;18.134;2023-05-07T01:35:32;101872.33;;;2.85;86.29
76598;BME280;65486;53.144;18.134;2023-05-07T01:38:02;101875.17;;;2.80;86.18
76598;BME280;65486;53.144;18.134;2023-05-07T01:40:34;101877.54;;;2.76;86.14
76598;BME280;65486;53.144;18.134;2023-05-07T01:43:05;101877.68;;;2.71;86.06
76598;BME280;65486;53.144;18.134;2023-05-07T01:45:44;101885.40;;;2.65;86.14
76598;BME280;65486;53.144;18.134;2023-05-07T01:48:13;101884.17;;;2.60;86.18
76598;BME280;65486;53.144;18.134;2023-05-07T01:50:41;101886.29;;;2.57;86.13
76598;BME280;65486;53.144;18.134;2023-05-07T01:53:09;101886.31;;;2.52;86.25
76598;BME280;65486;53.144;18.134;2023-05-07T01:55:36;101885.58;;;2.49;86.51
76598;BME280;65486;53.144;18.134;2023-05-07T01:58:04;101889.36;;;2.45;86.31
76598;BME280;65486;53.144;18.134;2023-05-07T02:00:31;101886.55;;;2.40;86.40
76598;BME280;65486;53.144;18.134;2023-05-07T02:03:00;101887.48;;;2.35;86.13
76598;BME280;65486;53.144;18.134;2023-05-07T02:05:47;101888.73;;;2.29;86.13
76598;BME280;65486;53.144;18.134;2023-05-07T02:08:31;101889.53;;;2.25;86.16
76598;BME280;65486;53.144;18.134;2023-05-07T02:10:58;101893.84;;;2.19;86.26
76598;BME280;65486;53.144;18.134;2023-05-07T02:13:29;101888.02;;;2.13;86.41
76598;BME280;65486;53.144;18.134;2023-05-07T02:15:57;101883.98;;;2.10;86.90
76598;BME280;65486;53.144;18.134;2023-05-07T02:18:25;101886.99;;;2.09;86.83
76598;BME280;65486;53.144;18.134;2023-05-07T02:20:52;101891.05;;;2.08;87.03
76598;BME280;65486;53.144;18.134;2023-05-07T02:23:19;101898.75;;;2.07;86.89
76598;BME280;65486;53.144;18.134;2023-05-07T02:25:47;101899.17;;;2.06;87.21
76598;BME280;65486;53.144;18.134;2023-05-07T02:28:13;101902.46;;;2.06;87.01
76598;BME280;65486;53.144;18.134;2023-05-07T02:31:04;101903.52;;;2.02;87.11
76598;BME280;65486;53.144;18.134;2023-05-07T02:33:31;101902.34;;;2.00;86.66
76598;BME280;65486;53.144;18.134;2023-05-07T02:36:10;101901.83;;;1.97;86.69
76598;BME280;65486;53.144;18.134;2023-05-07T02:38:43;101899.67;;;1.95;86.83
76598;BME280;65486;53.144;18.134;2023-05-07T02:41:14;101896.37;;;1.94;86.92
76598;BME280;65486;53.144;18.134;2023-05-07T02:43:41;101897.58;;;1.92;87.01
76598;BME280;65486;53.144;18.134;2023-05-07T02:46:08;101902.18;;;1.92;87.06
76598;BME280;65486;53.144;18.134;2023-05-07T02:48:38;101903.86;;;1.91;86.84
76598;BME280;65486;53.144;18.134;2023-05-07T02:51:05;101908.02;;;1.89;87.06
76598;BME280;65486;53.144;18.134;2023-05-07T02:53:33;101911.57;;;1.88;87.32
76598;BME280;65486;53.144;18.134;2023-05-07T02:56:02;101909.63;;;1.86;87.07
76598;BME280;65486;53.144;18.134;2023-05-07T02:58:29;101911.16;;;1.83;87.21
76598;BME280;65486;53.144;18.134;2023-05-07T03:00:57;101908.52;;;1.80;86.89
76598;BME280;65486;53.144;18.134;2023-05-07T03:03:34;101906.85;;;1.79;87.32
76598;BME280;65486;53.144;18.134;2023-05-07T03:06:02;101912.31;;;1.78;87.34
76598;BME280;65486;53.144;18.134;2023-05-07T03:08:29;101915.97;;;1.78;87.19
76598;BME280;65486;53.144;18.134;2023-05-07T03:10:56;101917.77;;;1.78;87.11
76598;BME280;65486;53.144;18.134;2023-05-07T03:13:23;101920.84;;;1.78;87.21
76598;BME280;65486;53.144;18.134;2023-05-07T03:15:50;101923.86;;;1.81;87.58
76598;BME280;65486;53.144;18.134;2023-05-07T03:18:17;101929.20;;;1.82;87.39
76598;BME280;65486;53.144;18.134;2023-05-07T03:20:47;101929.02;;;1.84;87.47
76598;BME280;65486;53.144;18.134;2023-05-07T03:23:17;101915.03;;;1.74;87.30
76598;BME280;65486;53.144;18.134;2023-05-07T03:25:45;101937.09;;;1.87;87.33
76598;BME280;65486;53.144;18.134;2023-05-07T03:28:12;101940.42;;;1.88;87.48
76598;BME280;65486;53.144;18.134;2023-05-07T03:30:44;101940.95;;;1.90;87.50
76598;BME280;65486;53.144;18.134;2023-05-07T03:33:11;101942.55;;;1.92;87.59
76598;BME280;65486;53.144;18.134;2023-05-07T03:35:38;101944.83;;;1.95;87.38
76598;BME280;65486;53.144;18.134;2023-05-07T03:38:07;101942.77;;;1.98;87.71
76598;BME280;65486;53.144;18.134;2023-05-07T03:40:36;101945.23;;;2.02;87.54
76598;BME280;65486;53.144;18.134;2023-05-07T03:43:06;101948.66;;;2.07;87.52
76598;BME280;65486;53.144;18.134;2023-05-07T03:45:36;101949.05;;;2.10;87.17
76598;BME280;65486;53.144;18.134;2023-05-07T03:48:13;101950.92;;;2.13;87.19
76598;BME280;65486;53.144;18.134;2023-05-07T03:50:40;101954.98;;;2.17;87.15
76598;BME280;65486;53.144;18.134;2023-05-07T03:53:07;101953.73;;;2.21;87.25
76598;BME280;65486;53.144;18.134;2023-05-07T03:55:38;101956.48;;;2.26;87.19
76598;BME280;65486;53.144;18.134;2023-05-07T03:58:06;101960.84;;;2.32;87.05
76598;BME280;65486;53.144;18.134;2023-05-07T04:00:36;101962.17;;;2.39;87.23
76598;BME280;65486;53.144;18.134;2023-05-07T04:03:14;101966.52;;;2.47;87.23
76598;BME280;65486;53.144;18.134;2023-05-07T04:05:42;101970.54;;;2.56;87.53
76598;BME280;65486;53.144;18.134;2023-05-07T04:08:11;101969.79;;;2.67;87.39
76598;BME280;65486;53.144;18.134;2023-05-07T04:10:40;101967.16;;;2.77;87.26
76598;BME280;65486;53.144;18.134;2023-05-07T04:13:09;101969.80;;;2.89;87.34
76598;BME280;65486;53.144;18.134;2023-05-07T04:15:40;101971.80;;;3.03;87.32
76598;BME280;65486;53.144;18.134;2023-05-07T04:18:10;101974.98;;;3.17;87.24
76598;BME280;65486;53.144;18.134;2023-05-07T04:20:38;101983.40;;;3.31;87.12
76598;BME280;65486;53.144;18.134;2023-05-07T04:23:09;101987.11;;;3.46;86.93
76598;BME280;65486;53.144;18.134;2023-05-07T04:25:38;101989.64;;;3.61;86.67
76598;BME280;65486;53.144;18.134;2023-05-07T04:28:12;101990.75;;;3.76;86.45
76598;BME280;65486;53.144;18.134;2023-05-07T04:30:39;101994.26;;;3.90;86.37
76598;BME280;65486;53.144;18.134;2023-05-07T04:33:09;101999.37;;;4.04;85.88
76598;BME280;65486;53.144;18.134;2023-05-07T04:35:46;102000.32;;;4.20;85.61
76598;BME280;65486;53.144;18.134;2023-05-07T04:38:13;101998.15;;;4.35;85.40
76598;BME280;65486;53.144;18.134;2023-05-07T04:40:40;101998.66;;;4.50;84.98
76598;BME280;65486;53.144;18.134;2023-05-07T04:43:09;102002.15;;;4.64;84.88
76598;BME280;65486;53.144;18.134;2023-05-07T04:45:42;102000.97;;;4.81;84.83
76598;BME280;65486;53.144;18.134;2023-05-07T04:48:10;102002.73;;;4.95;84.44
76598;BME280;65486;53.144;18.134;2023-05-07T04:50:38;102010.52;;;5.04;84.36
76598;BME280;65486;53.144;18.134;2023-05-07T04:53:06;102007.06;;;5.15;84.09
76598;BME280;65486;53.144;18.134;2023-05-07T04:55:33;102008.02;;;5.29;84.05
76598;BME280;65486;53.144;18.134;2023-05-07T04:58:00;102015.52;;;5.41;83.63
76598;BME280;65486;53.144;18.134;2023-05-07T05:00:29;102009.77;;;5.54;83.07
76598;BME280;65486;53.144;18.134;2023-05-07T05:02:58;102008.61;;;5.69;82.67
76598;BME280;65486;53.144;18.134;2023-05-07T05:05:27;102015.07;;;5.83;82.16
76598;BME280;65486;53.144;18.134;2023-05-07T05:07:55;102016.54;;;6.00;82.03
76598;BME280;65486;53.144;18.134;2023-05-07T05:10:22;102014.04;;;6.22;81.54
76598;BME280;65486;53.144;18.134;2023-05-07T05:12:49;102013.83;;;6.46;81.26
76598;BME280;65486;53.144;18.134;2023-05-07T05:15:17;102018.05;;;6.87;80.94
76598;BME280;65486;53.144;18.134;2023-05-07T05:17:44;102019.74;;;7.99;79.02
76598;BME280;65486;53.144;18.134;2023-05-07T05:20:12;102017.73;;;9.28;75.79
76598;BME280;65486;53.144;18.134;2023-05-07T05:22:41;102015.56;;;10.54;73.43
76598;BME280;65486;53.144;18.134;2023-05-07T05:25:09;102012.98;;;11.78;71.54
76598;BME280;65486;53.144;18.134;2023-05-07T05:27:36;102014.75;;;13.06;69.55
76598;BME280;65486;53.144;18.134;2023-05-07T05:30:04;102011.67;;;14.15;66.25
76598;BME280;65486;53.144;18.134;2023-05-07T05:32:32;102007.84;;;15.12;62.23
76598;BME280;65486;53.144;18.134;2023-05-07T05:35:00;102011.95;;;15.84;60.84
76598;BME280;65486;53.144;18.134;2023-05-07T05:37:27;102015.09;;;16.73;59.12
76598;BME280;65486;53.144;18.134;2023-05-07T05:39:54;102019.58;;;17.65;57.77
76598;BME280;65486;53.144;18.134;2023-05-07T05:42:24;102019.39;;;18.34;56.75
76598;BME280;65486;53.144;18.134;2023-05-07T05:44:52;102019.54;;;18.88;53.32
76598;BME280;65486;53.144;18.134;2023-05-07T05:47:19;102016.16;;;19.24;51.54
76598;BME280;65486;53.144;18.134;2023-05-07T05:49:46;102014.37;;;19.65;50.97
76598;BME280;65486;53.144;18.134;2023-05-07T05:52:15;102016.23;;;20.02;49.71
76598;BME280;65486;53.144;18.134;2023-05-07T05:54:44;102012.65;;;20.36;46.87
76598;BME280;65486;53.144;18.134;2023-05-07T05:57:12;102019.39;;;20.53;45.06
76598;BME280;65486;53.144;18.134;2023-05-07T05:59:43;102024.37;;;20.81;46.43
76598;BME280;65486;53.144;18.134;2023-05-07T06:02:14;102025.25;;;21.06;42.22
76598;BME280;65486;53.144;18.134;2023-05-07T06:04:41;102025.20;;;21.29;42.70
76598;BME280;65486;53.144;18.134;2023-05-07T06:07:09;102022.27;;;21.55;44.58
76598;BME280;65486;53.144;18.134;2023-05-07T06:09:36;102021.23;;;21.92;43.11
76598;BME280;65486;53.144;18.134;2023-05-07T06:12:03;102020.86;;;22.16;41.69
76598;BME280;65486;53.144;18.134;2023-05-07T06:14:31;102019.55;;;22.40;41.02
76598;BME280;65486;53.144;18.134;2023-05-07T06:16:59;102020.07;;;22.75;40.36
76598;BME280;65486;53.144;18.134;2023-05-07T06:19:28;102019.75;;;23.05;39.80
76598;BME280;65486;53.144;18.134;2023-05-07T06:22:06;102022.15;;;23.40;38.80
76598;BME280;65486;53.144;18.134;2023-05-07T06:24:35;102023.47;;;23.69;39.41
76598;BME280;65486;53.144;18.134;2023-05-07T06:27:02;102016.14;;;24.06;36.17
76598;BME280;65486;53.144;18.134;2023-05-07T06:29:30;102024.20;;;24.38;34.74
76598;BME280;65486;53.144;18.134;2023-05-07T06:32:09;102025.13;;;24.67;35.77
76598;BME280;65486;53.144;18.134;2023-05-07T06:34:37;102025.94;;;25.01;33.33
76598;BME280;65486;53.144;18.134;2023-05-07T06:37:06;102024.63;;;25.14;33.04
76598;BME280;65486;53.144;18.134;2023-05-07T06:39:47;102022.19;;;25.36;32.43
76598;BME280;65486;53.144;18.134;2023-05-07T06:42:17;102025.11;;;25.59;31.54
76598;BME280;65486;53.144;18.134;2023-05-07T06:44:46;102025.02;;;25.71;30.70
76598;BME280;65486;53.144;18.134;2023-05-07T06:47:16;102027.16;;;25.73;29.51
76598;BME280;65486;53.144;18.134;2023-05-07T06:49:44;102031.00;;;25.61;29.83
76598;BME280;65486;53.144;18.134;2023-05-07T06:52:12;102032.94;;;25.72;30.36
76598;BME280;65486;53.144;18.134;2023-05-07T06:54:39;102032.61;;;25.92;29.81
76598;BME280;65486;53.144;18.134;2023-05-07T06:57:08;102032.40;;;26.10;29.60
76598;BME280;65486;53.144;18.134;2023-05-07T06:59:35;102032.80;;;26.42;29.16
76598;BME280;65486;53.144;18.134;2023-05-07T07:02:02;102029.80;;;26.72;28.15
76598;BME280;65486;53.144;18.134;2023-05-07T07:04:45;102032.88;;;26.86;26.91
76598;BME280;65486;53.144;18.134;2023-05-07T07:07:11;102041.81;;;26.97;24.74
76598;BME280;65486;53.144;18.134;2023-05-07T07:09:39;102042.58;;;26.73;23.80
76598;BME280;65486;53.144;18.134;2023-05-07T07:12:06;102048.71;;;26.61;24.13
76598;BME280;65486;53.144;18.134;2023-05-07T07:14:34;102048.83;;;26.33;23.83
76598;BME280;65486;53.144;18.134;2023-05-07T07:17:01;102050.55;;;26.16;24.58
76598;BME280;65486;53.144;18.134;2023-05-07T07:19:29;102049.73;;;26.13;24.46
76598;BME280;65486;53.144;18.134;2023-05-07T07:21:58;102055.17;;;26.18;23.53
76598;BME280;65486;53.144;18.134;2023-05-07T07:24:27;102057.34;;;26.24;22.89
76598;BME280;65486;53.144;18.134;2023-05-07T07:26:56;102055.84;;;26.05;23.08
76598;BME280;65486;53.144;18.134;2023-05-07T07:29:25;102057.08;;;25.99;22.98
76598;BME280;65486;53.144;18.134;2023-05-07T07:31:53;102054.14;;;26.06;23.60
76598;BME280;65486;53.144;18.134;2023-05-07T07:34:20;102052.96;;;26.34;22.77
76598;BME280;65486;53.144;18.134;2023-05-07T07:36:48;102046.30;;;26.32;22.07
76598;BME280;65486;53.144;18.134;2023-05-07T07:39:19;102052.98;;;26.32;21.83
76598;BME280;65486;53.144;18.134;2023-05-07T07:41:47;102046.11;;;25.99;21.93
76598;BME280;65486;53.144;18.134;2023-05-07T07:44:15;102046.00;;;25.93;21.53
76598;BME280;65486;53.144;18.134;2023-05-07T07:46:42;102052.84;;;25.94;21.91
76598;BME280;65486;53.144;18.134;2023-05-07T07:49:09;102056.11;;;25.72;21.01
76598;BME280;65486;53.144;18.134;2023-05-07T07:51:36;102057.98;;;25.61;21.48
76598;BME280;65486;53.144;18.134;2023-05-07T07:54:03;102059.23;;;25.62;20.74
76598;BME280;65486;53.144;18.134;2023-05-07T07:56:32;102058.41;;;25.56;20.90
76598;BME280;65486;53.144;18.134;2023-05-07T07:59:07;102059.52;;;25.69;21.00
76598;BME280;65486;53.144;18.134;2023-05-07T08:02:01;102058.98;;;25.76;21.24
76598;BME280;65486;53.144;18.134;2023-05-07T08:04:32;102059.55;;;25.73;20.78
76598;BME280;65486;53.144;18.134;2023-05-07T08:07:11;102058.29;;;25.57;20.78
76598;BME280;65486;53.144;18.134;2023-05-07T08:09:41;102064.83;;;25.61;20.54
76598;BME280;65486;53.144;18.134;2023-05-07T08:12:08;102061.05;;;25.44;20.17
76598;BME280;65486;53.144;18.134;2023-05-07T08:14:35;102061.22;;;25.66;21.44
76598;BME280;65486;53.144;18.134;2023-05-07T08:17:04;102064.02;;;26.10;22.24
76598;BME280;65486;53.144;18.134;2023-05-07T08:19:31;102058.73;;;26.51;21.27
76598;BME280;65486;53.144;18.134;2023-05-07T08:22:10;102058.06;;;26.81;21.27
76598;BME280;65486;53.144;18.134;2023-05-07T08:24:43;102060.18;;;26.89;20.18
76598;BME280;65486;53.144;18.134;2023-05-07T08:27:22;102066.27;;;26.86;19.53
76598;BME280;65486;53.144;18.134;2023-05-07T08:29:59;102061.32;;;26.67;20.01
76598;BME280;65486;53.144;18.134;2023-05-07T08:32:26;102064.73;;;26.54;19.58
76598;BME280;65486;53.144;18.134;2023-05-07T08:34:54;102069.95;;;26.50;19.91
76598;BME280;65486;53.144;18.134;2023-05-07T08:37:21;102068.27;;;26.48;20.56
76598;BME280;65486;53.144;18.134;2023-05-07T08:39:48;102072.91;;;26.36;19.30
76598;BME280;65486;53.144;18.134;2023-05-07T08:42:20;102071.59;;;26.37;19.98
76598;BME280;65486;53.144;18.134;2023-05-07T08:44:51;102072.88;;;26.50;19.97
76598;BME280;65486;53.144;18.134;2023-05-07T08:47:29;102074.86;;;26.55;19.34
76598;BME280;65486;53.144;18.134;2023-05-07T08:50:02;102079.04;;;26.34;19.63
76598;BME280;65486;53.144;18.134;2023-05-07T08:52:55;102082.56;;;26.31;19.81
76598;BME280;65486;53.144;18.134;2023-05-07T08:55:28;102080.73;;;26.39;20.52
76598;BME280;65486;53.144;18.134;2023-05-07T08:57:57;102081.02;;;26.50;20.11
76598;BME280;65486;53.144;18.134;2023-05-07T09:00:24;102081.84;;;26.42;19.61
76598;BME280;65486;53.144;18.134;2023-05-07T09:02:53;102079.95;;;26.25;19.30
76598;BME280;65486;53.144;18.134;2023-05-07T09:05:21;102081.70;;;26.27;19.55
76598;BME280;65486;53.144;18.134;2023-05-07T09:07:49;102080.29;;;26.26;20.13
76598;BME280;65486;53.144;18.134;2023-05-07T09:10:17;102086.96;;;26.10;19.69
76598;BME280;65486;53.144;18.134;2023-05-07T09:12:58;102089.43;;;25.98;20.59
76598;BME280;65486;53.144;18.134;2023-05-07T09:15:28;102090.39;;;25.99;19.54
76598;BME280;65486;53.144;18.134;2023-05-07T09:18:00;102092.66;;;25.73;19.64
76598;BME280;65486;53.144;18.134;2023-05-07T09:20:30;102084.22;;;25.45;19.91
76598;BME280;65486;53.144;18.134;2023-05-07T09:22:58;102082.11;;;25.46;19.90
76598;BME280;65486;53.144;18.134;2023-05-07T09:25:30;102084.02;;;25.51;20.36
76598;BME280;65486;53.144;18.134;2023-05-07T09:28:05;102084.36;;;25.81;20.33
76598;BME280;65486;53.144;18.134;2023-05-07T09:30:42;102084.82;;;25.96;19.90
76598;BME280;65486;53.144;18.134;2023-05-07T09:33:14;102082.30;;;25.99;20.35
76598;BME280;65486;53.144;18.134;2023-05-07T09:35:55;102078.73;;;26.00;19.75
76598;BME280;65486;53.144;18.134;2023-05-07T09:38:23;102086.15;;;25.98;19.88
76598;BME280;65486;53.144;18.134;2023-05-07T09:41:08;102084.29;;;25.99;20.09
76598;BME280;65486;53.144;18.134;2023-05-07T09:43:40;102085.70;;;26.05;20.39
76598;BME280;65486;53.144;18.134;2023-05-07T09:46:14;102090.34;;;26.27;21.04
76598;BME280;65486;53.144;18.134;2023-05-07T09:48:43;102090.20;;;26.08;20.12
76598;BME280;65486;53.144;18.134;2023-05-07T09:51:21;102087.52;;;25.82;20.42
76598;BME280;65486;53.144;18.134;2023-05-07T09:53:56;102086.20;;;25.91;20.04
76598;BME280;65486;53.144;18.134;2023-05-07T09:56:25;102090.16;;;25.92;19.96
76598;BME280;65486;53.144;18.134;2023-05-07T09:58:54;102088.79;;;25.95;19.74
76598;BME280;65486;53.144;18.134;2023-05-07T10:01:26;102094.61;;;26.24;20.47
76598;BME280;65486;53.144;18.134;2023-05-07T10:03:55;102095.02;;;26.61;20.03
76598;BME280;65486;53.144;18.134;2023-05-07T10:06:24;102094.34;;;26.71;20.52
76598;BME280;65486;53.144;18.134;2023-05-07T10:08:55;102098.84;;;26.96;20.71
76598;BME280;65486;53.144;18.134;2023-05-07T10:11:23;102091.91;;;27.34;20.33
76598;BME280;65486;53.144;18.134;2023-05-07T10:13:52;102099.21;;;27.66;19.41
76598;BME280;65486;53.144;18.134;2023-05-07T10:16:22;102101.16;;;27.81;19.58
76598;BME280;65486;53.144;18.134;2023-05-07T10:18:51;102096.41;;;27.71;20.07
76598;BME280;65486;53.144;18.134;2023-05-07T10:21:23;102105.81;;;26.14;20.75
76598;BME280;65486;53.144;18.134;2023-05-07T10:24:13;102103.98;;;25.87;21.65
76598;BME280;65486;53.144;18.134;2023-05-07T10:26:49;102103.28;;;25.81;20.93
76598;BME280;65486;53.144;18.134;2023-05-07T10:29:43;102106.98;;;24.51;21.89
76598;BME280;65486;53.144;18.134;2023-05-07T10:35:40;102116.53;;;20.99;25.32
76598;BME280;65486;53.144;18.134;2023-05-07T10:38:10;102113.11;;;21.61;25.16
76598;BME280;65486;53.144;18.134;2023-05-07T10:40:40;102105.96;;;22.54;24.27
76598;BME280;65486;53.144;18.134;2023-05-07T10:43:08;102104.14;;;22.92;24.31
76598;BME280;65486;53.144;18.134;2023-05-07T10:45:42;102114.48;;;21.84;24.93
76598;BME280;65486;53.144;18.134;2023-05-07T10:52:11;102105.36;;;20.43;26.18
76598;BME280;65486;53.144;18.134;2023-05-07T10:54:43;102106.80;;;21.31;26.01
76598;BME280;65486;53.144;18.134;2023-05-07T11:00:00;102104.87;;;22.23;25.33
76598;BME280;65486;53.144;18.134;2023-05-07T11:05:33;102107.89;;;21.88;25.25
76598;BME280;65486;53.144;18.134;2023-05-07T11:08:17;102103.99;;;21.84;25.94
76598;BME280;65486;53.144;18.134;2023-05-07T11:11:09;102107.00;;;22.35;25.10
76598;BME280;65486;53.144;18.134;2023-05-07T11:13:48;102083.65;;;22.40;24.84
76598;BME280;65486;53.144;18.134;2023-05-07T11:17:03;102098.48;;;22.86;24.50
76598;BME280;65486;53.144;18.134;2023-05-07T11:19:49;102104.64;;;23.01;25.02
76598;BME280;65486;53.144;18.134;2023-05-07T11:22:39;102108.88;;;23.31;24.40
76598;BME280;65486;53.144;18.134;2023-05-07T11:25:23;102119.01;;;22.04;23.97
76598;BME280;65486;53.144;18.134;2023-05-07T11:27:55;102116.88;;;20.95;25.59
76598;BME280;65486;53.144;18.134;2023-05-07T11:30:25;102116.80;;;20.23;26.66
76598;BME280;65486;53.144;18.134;2023-05-07T11:33:04;102121.47;;;19.42;27.69
76598;BME280;65486;53.144;18.134;2023-05-07T11:35:34;102113.09;;;19.21;27.86
76598;BME280;65486;53.144;18.134;2023-05-07T11:38:36;102109.80;;;19.08;28.20
76598;BME280;65486;53.144;18.134;2023-05-07T11:41:08;102088.28;;;18.24;29.33
76598;BME280;65486;53.144;18.134;2023-05-07T11:43:35;102113.66;;;17.80;30.27
76598;BME280;65486;53.144;18.134;2023-05-07T11:46:09;102111.61;;;17.42;30.80
76598;BME280;65486;53.144;18.134;2023-05-07T11:48:38;102116.64;;;17.13;30.40
76598;BME280;65486;53.144;18.134;2023-05-07T11:51:07;102117.29;;;16.80;30.77
76598;BME280;65486;53.144;18.134;2023-05-07T11:53:46;102122.45;;;16.42;31.51
76598;BME280;65486;53.144;18.134;2023-05-07T11:56:34;102124.15;;;16.24;31.66
76598;BME280;65486;53.144;18.134;2023-05-07T11:59:28;102102.63;;;16.41;30.74
76598;BME280;65486;53.144;18.134;2023-05-07T12:02:06;102123.48;;;16.33;31.23
76598;BME280;65486;53.144;18.134;2023-05-07T12:04:39;102130.11;;;16.83;30.59
76598;BME280;65486;53.144;18.134;2023-05-07T12:07:15;102125.97;;;17.46;30.56
76598;BME280;65486;53.144;18.134;2023-05-07T12:09:44;102131.70;;;17.61;29.80
76598;BME280;65486;53.144;18.134;2023-05-07T12:12:13;102127.73;;;17.27;29.62
76598;BME280;65486;53.144;18.134;2023-05-07T12:14:44;102105.55;;;16.82;30.43
76598;BME280;65486;53.144;18.134;2023-05-07T12:17:20;102127.23;;;16.72;31.02
76598;BME280;65486;53.144;18.134;2023-05-07T12:19:49;102135.73;;;16.67;31.62
76598;BME280;65486;53.144;18.134;2023-05-07T12:22:30;102131.54;;;16.55;31.60
76598;BME280;65486;53.144;18.134;2023-05-07T12:25:09;102133.20;;;16.47;31.70
76598;BME280;65486;53.144;18.134;2023-05-07T12:27:53;102113.58;;;16.46;31.15
76598;BME280;65486;53.144;18.134;2023-05-07T12:30:21;102118.88;;;16.67;31.43
76598;BME280;65486;53.144;18.134;2023-05-07T12:32:52;102117.67;;;16.83;31.75
76598;BME280;65486;53.144;18.134;2023-05-07T12:35:30;102123.27;;;17.04;32.08
76598;BME280;65486;53.144;18.134;2023-05-07T12:38:12;102124.43;;;17.02;31.95
76598;BME280;65486;53.144;18.134;2023-05-07T12:40:54;102125.88;;;16.73;32.19
76598;BME280;65486;53.144;18.134;2023-05-07T12:43:28;102128.77;;;16.54;32.19
76598;BME280;65486;53.144;18.134;2023-05-07T12:46:22;102126.95;;;16.38;32.53
76598;BME280;65486;53.144;18.134;2023-05-07T12:48:52;102130.37;;;16.33;32.77
76598;BME280;65486;53.144;18.134;2023-05-07T12:51:22;102127.24;;;16.29;32.78
76598;BME280;65486;53.144;18.134;2023-05-07T12:53:49;102123.77;;;16.34;32.68
76598;BME280;65486;53.144;18.134;2023-05-07T12:56:16;102124.20;;;16.33;32.35
76598;BME280;65486;53.144;18.134;2023-05-07T12:58:51;102123.97;;;16.27;32.32
76598;BME280;65486;53.144;18.134;2023-05-07T13:01:20;102126.98;;;16.29;31.95
76598;BME280;65486;53.144;18.134;2023-05-07T13:03:48;102126.98;;;16.34;31.53
76598;BME280;65486;53.144;18.134;2023-05-07T13:06:18;102105.60;;;16.17;31.59
76598;BME280;65486;53.144;18.134;2023-05-07T13:08:48;102125.06;;;16.13;31.06
76598;BME280;65486;53.144;18.134;2023-05-07T13:11:16;102119.63;;;15.91;30.64
76598;BME280;65486;53.144;18.134;2023-05-07T13:13:46;102126.58;;;15.72;31.86
76598;BME280;65486;53.144;18.134;2023-05-07T13:16:12;102120.24;;;15.64;32.15